createdAt,value
2017-01-29T00:00:11.907Z,51.50
2017-01-29T00:01:12.094Z,51.50
2017-01-29T00:02:12.576Z,51.80
2017-01-29T00:03:12.263Z,51.40
2017-01-29T00:04:13.016Z,51.50
2017-01-29T00:05:12.172Z,51.40
2017-01-29T00:06:12.710Z,51.50
2017-01-29T00:07:12.692Z,51.40
2017-01-29T00:08:11.663Z,51.40
2017-01-29T00:09:10.538Z,is
2017-01-29T00:10:10.343Z,is
2017-01-29T00:11:12.539Z,51.40
2017-01-29T00:12:13.976Z,51.30
2017-01-29T00:13:11.952Z,51.40
2017-01-29T00:14:15.586Z,51.30
2017-01-29T00:15:11.694Z,51.40
2017-01-29T00:16:13.439Z,51.30
2017-01-29T00:17:11.977Z,51.30
2017-01-29T00:18:12.059Z,51.40
2017-01-29T00:19:12.247Z,51.30
2017-01-29T00:20:10.311Z,is
2017-01-29T00:21:13.322Z,51.60
2017-01-29T00:22:12.893Z,51.40
2017-01-29T00:23:12.556Z,51.40
2017-01-29T00:24:14.298Z,51.40
2017-01-29T00:25:13.189Z,51.60
2017-01-29T00:26:12.530Z,51.30
2017-01-29T00:27:13.179Z,51.50
2017-01-29T00:28:12.261Z,51.30
2017-01-29T00:29:13.589Z,51.40
2017-01-29T00:30:11.858Z,51.40
2017-01-29T00:31:12.527Z,51.40
2017-01-29T00:32:12.079Z,51.60
2017-01-29T00:33:12.087Z,51.40
2017-01-29T00:34:12.605Z,51.20
2017-01-29T00:35:12.299Z,51.20
2017-01-29T00:36:13.100Z,51.40
2017-01-29T00:37:10.818Z,is
2017-01-29T00:38:12.669Z,51.50
2017-01-29T00:39:11.786Z,51.40
2017-01-29T00:40:12.308Z,51.40
2017-01-29T00:41:13.024Z,51.20
2017-01-29T00:42:13.219Z,51.40
2017-01-29T00:43:12.059Z,51.30
2017-01-29T00:44:11.976Z,51.20
2017-01-29T00:45:12.332Z,51.20
2017-01-29T00:46:12.449Z,51.30
2017-01-29T00:47:11.536Z,51.40
2017-01-29T00:48:12.385Z,51.40
2017-01-29T00:49:13.054Z,51.40
2017-01-29T00:50:12.578Z,51.20
2017-01-29T00:51:12.266Z,51.20
2017-01-29T00:52:10.523Z,is
2017-01-29T00:53:12.022Z,51.30
2017-01-29T00:54:12.254Z,51.20
2017-01-29T00:55:12.767Z,51.30
2017-01-29T00:56:12.467Z,51.20
2017-01-29T00:57:11.535Z,51.20
2017-01-29T00:58:12.266Z,51.40
2017-01-29T00:59:13.368Z,51.30
2017-01-29T01:00:13.653Z,51.30
2017-01-29T01:01:11.829Z,51.30
2017-01-29T01:02:13.939Z,51.30
2017-01-29T01:03:11.996Z,51.20
2017-01-29T01:04:13.197Z,51.30
2017-01-29T01:05:12.331Z,51.30
2017-01-29T01:06:12.435Z,51.20
2017-01-29T01:07:12.101Z,51.30
2017-01-29T01:08:12.793Z,51.40
2017-01-29T01:09:13.030Z,51.30
2017-01-29T01:10:12.137Z,51.30
2017-01-29T01:11:12.541Z,51.40
2017-01-29T01:12:11.646Z,51.30
2017-01-29T01:13:11.872Z,51.40
2017-01-29T01:14:12.732Z,51.40
2017-01-29T01:15:12.418Z,51.20
2017-01-29T01:16:14.314Z,51.30
2017-01-29T01:17:12.939Z,51.20
2017-01-29T01:18:12.661Z,51.30
2017-01-29T01:19:12.111Z,51.10
2017-01-29T01:20:12.196Z,51.10
2017-01-29T01:21:12.329Z,51.20
2017-01-29T01:22:12.354Z,51.20
2017-01-29T01:23:13.215Z,51.20
2017-01-29T01:24:11.134Z,is
2017-01-29T01:25:11.547Z,51.20
2017-01-29T01:26:12.334Z,51.40
2017-01-29T01:27:10.311Z,is
2017-01-29T01:28:12.443Z,51.30
2017-01-29T01:29:12.349Z,51.10
2017-01-29T01:30:13.145Z,51.20
2017-01-29T01:31:12.583Z,51.00
2017-01-29T01:32:12.395Z,51.10
2017-01-29T01:33:12.872Z,51.10
2017-01-29T01:34:12.097Z,51.00
2017-01-29T01:35:11.165Z,is
2017-01-29T01:36:12.827Z,51.10
2017-01-29T01:37:12.621Z,51.10
2017-01-29T01:38:11.653Z,51.00
2017-01-29T01:39:11.740Z,51.00
2017-01-29T01:40:12.478Z,51.00
2017-01-29T01:41:12.213Z,51.00
2017-01-29T01:42:13.016Z,51.10
2017-01-29T01:43:14.164Z,51.20
2017-01-29T01:44:12.874Z,51.00
2017-01-29T01:45:11.998Z,51.10
2017-01-29T01:46:10.725Z,is
2017-01-29T01:47:12.430Z,51.00
2017-01-29T01:48:13.224Z,51.10
2017-01-29T01:49:12.842Z,51.10
2017-01-29T01:50:12.584Z,51.00
2017-01-29T01:51:13.302Z,51.10
2017-01-29T01:52:13.099Z,50.90
2017-01-29T01:53:14.079Z,50.90
2017-01-29T01:54:13.660Z,51.10
2017-01-29T01:55:12.768Z,51.10
2017-01-29T01:56:12.673Z,51.00
2017-01-29T01:57:13.404Z,51.10
2017-01-29T01:58:11.439Z,51.00
2017-01-29T01:59:12.798Z,51.00
2017-01-29T02:00:11.921Z,51.00
2017-01-29T02:01:09.913Z,is
2017-01-29T02:02:12.922Z,51.10
2017-01-29T02:03:12.147Z,51.00
2017-01-29T02:04:12.934Z,50.60
2017-01-29T02:05:09.692Z,is
2017-01-29T02:06:12.193Z,51.00
2017-01-29T02:07:13.154Z,51.00
2017-01-29T02:08:13.076Z,51.00
2017-01-29T02:09:16.066Z,51.10
2017-01-29T02:10:11.463Z,51.10
2017-01-29T02:11:11.486Z,51.00
2017-01-29T02:12:12.472Z,51.00
2017-01-29T02:13:12.328Z,51.10
2017-01-29T02:14:15.300Z,51.10
2017-01-29T02:15:12.952Z,51.00
2017-01-29T02:16:13.748Z,51.00
2017-01-29T02:17:12.583Z,51.00
2017-01-29T02:18:12.475Z,51.10
2017-01-29T02:19:12.017Z,51.10
2017-01-29T02:20:12.110Z,51.10
2017-01-29T02:21:12.705Z,51.10
2017-01-29T02:22:10.332Z,is
2017-01-29T02:23:12.607Z,51.00
2017-01-29T02:24:12.386Z,51.10
2017-01-29T02:25:13.267Z,51.10
2017-01-29T02:26:10.459Z,is
2017-01-29T02:27:12.141Z,51.10
2017-01-29T02:28:13.633Z,51.10
2017-01-29T02:29:12.324Z,51.00
2017-01-29T02:30:12.988Z,51.00
2017-01-29T02:31:13.245Z,51.00
2017-01-29T02:32:10.246Z,is
2017-01-29T02:33:10.249Z,is
2017-01-29T02:34:12.735Z,51.10
2017-01-29T02:35:12.515Z,51.20
2017-01-29T02:36:09.909Z,is
2017-01-29T02:37:11.986Z,51.10
2017-01-29T02:38:12.882Z,51.20
2017-01-29T02:39:11.984Z,51.00
2017-01-29T02:40:12.922Z,51.10
2017-01-29T02:41:12.065Z,51.00
2017-01-29T02:42:12.089Z,51.20
2017-01-29T02:43:12.524Z,51.00
2017-01-29T02:44:12.571Z,51.00
2017-01-29T02:45:11.709Z,51.10
2017-01-29T02:46:11.935Z,51.00
2017-01-29T02:47:12.694Z,51.00
2017-01-29T02:48:14.409Z,51.00
2017-01-29T02:49:12.354Z,51.00
2017-01-29T02:50:12.776Z,51.00
2017-01-29T02:51:13.040Z,51.00
2017-01-29T02:52:13.501Z,51.00
2017-01-29T02:53:13.303Z,51.10
2017-01-29T02:54:12.876Z,51.00
2017-01-29T02:55:12.654Z,51.10
2017-01-29T02:56:12.281Z,50.90
2017-01-29T02:57:12.842Z,50.90
2017-01-29T02:58:12.435Z,51.00
2017-01-29T02:59:11.935Z,51.00
2017-01-29T03:00:12.554Z,51.10
2017-01-29T03:01:12.157Z,51.00
2017-01-29T03:02:12.817Z,51.00
2017-01-29T03:03:12.595Z,51.00
2017-01-29T03:04:12.192Z,51.00
2017-01-29T03:05:12.142Z,51.00
2017-01-29T03:06:12.830Z,51.00
2017-01-29T03:07:12.918Z,51.10
2017-01-29T03:08:12.037Z,50.90
2017-01-29T03:09:12.234Z,50.80
2017-01-29T03:10:12.791Z,51.00
2017-01-29T03:11:11.833Z,50.90
2017-01-29T03:12:12.077Z,51.00
2017-01-29T03:13:13.029Z,51.00
2017-01-29T03:14:13.139Z,51.00
2017-01-29T03:15:12.077Z,50.90
2017-01-29T03:16:11.934Z,50.90
2017-01-29T03:17:12.896Z,51.00
2017-01-29T03:18:10.033Z,is
2017-01-29T03:19:12.090Z,51.10
2017-01-29T03:20:12.228Z,50.90
2017-01-29T03:21:12.943Z,50.90
2017-01-29T03:22:10.967Z,is
2017-01-29T03:23:13.227Z,51.00
2017-01-29T03:24:12.878Z,51.00
2017-01-29T03:25:12.436Z,51.00
2017-01-29T03:26:11.139Z,50.90
2017-01-29T03:27:13.270Z,50.80
2017-01-29T03:28:12.382Z,50.80
2017-01-29T03:29:12.513Z,50.90
2017-01-29T03:30:12.361Z,50.90
2017-01-29T03:31:14.280Z,50.90
2017-01-29T03:32:13.017Z,50.90
2017-01-29T03:33:12.053Z,50.90
2017-01-29T03:34:12.745Z,50.90
2017-01-29T03:35:13.306Z,51.00
2017-01-29T03:36:12.378Z,50.90
2017-01-29T03:37:11.597Z,50.90
2017-01-29T03:38:09.139Z,is
2017-01-29T03:39:12.277Z,50.90
2017-01-29T03:40:13.420Z,50.80
2017-01-29T03:41:11.425Z,50.80
2017-01-29T03:42:10.486Z,is
2017-01-29T03:43:12.092Z,50.90
2017-01-29T03:44:12.221Z,50.90
2017-01-29T03:45:11.156Z,is
2017-01-29T03:46:11.367Z,50.80
2017-01-29T03:47:13.105Z,51.00
2017-01-29T03:48:12.123Z,51.00
2017-01-29T03:49:12.142Z,50.80
2017-01-29T03:50:12.149Z,51.00
2017-01-29T03:51:13.459Z,51.00
2017-01-29T03:52:12.157Z,50.90
2017-01-29T03:53:12.089Z,51.00
2017-01-29T03:54:12.106Z,50.80
2017-01-29T03:55:12.803Z,51.00
2017-01-29T03:56:12.927Z,50.90
2017-01-29T03:57:12.776Z,51.00
2017-01-29T03:58:15.022Z,50.90
2017-01-29T03:59:12.847Z,50.90
2017-01-29T04:00:12.405Z,50.90
2017-01-29T04:01:12.520Z,50.90
2017-01-29T04:02:13.365Z,50.90
2017-01-29T04:03:12.453Z,50.70
2017-01-29T04:04:12.239Z,50.80
2017-01-29T04:05:12.923Z,50.70
2017-01-29T04:06:12.637Z,50.90
2017-01-29T04:07:12.975Z,50.90
2017-01-29T04:08:12.478Z,50.70
2017-01-29T04:09:11.920Z,50.80
2017-01-29T04:10:13.556Z,50.90
2017-01-29T04:11:12.420Z,50.90
2017-01-29T04:12:11.699Z,50.90
2017-01-29T04:13:13.522Z,50.80
2017-01-29T04:14:12.192Z,50.90
2017-01-29T04:15:12.783Z,50.70
2017-01-29T04:16:13.124Z,50.90
2017-01-29T04:17:13.172Z,50.80
2017-01-29T04:18:12.775Z,50.80
2017-01-29T04:19:13.084Z,50.80
2017-01-29T04:20:12.276Z,51.00
2017-01-29T04:21:12.233Z,50.70
2017-01-29T04:22:14.892Z,50.80
2017-01-29T04:23:12.201Z,50.80
2017-01-29T04:24:12.934Z,51.00
2017-01-29T04:25:12.798Z,50.80
2017-01-29T04:26:12.366Z,50.70
2017-01-29T04:27:13.667Z,50.90
2017-01-29T04:28:12.441Z,50.80
2017-01-29T04:29:11.444Z,50.70
2017-01-29T04:30:11.624Z,50.70
2017-01-29T04:31:11.857Z,50.70
2017-01-29T04:32:13.462Z,50.80
2017-01-29T04:33:11.660Z,50.70
2017-01-29T04:34:11.797Z,50.70
2017-01-29T04:35:12.526Z,50.90
2017-01-29T04:36:11.560Z,50.70
2017-01-29T04:37:12.170Z,50.80
2017-01-29T04:38:12.327Z,50.80
2017-01-29T04:39:14.196Z,50.80
2017-01-29T04:40:12.954Z,50.80
2017-01-29T04:41:09.882Z,is
2017-01-29T04:42:12.828Z,50.90
2017-01-29T04:43:12.461Z,50.70
2017-01-29T04:44:11.593Z,50.70
2017-01-29T04:45:12.391Z,50.90
2017-01-29T04:46:12.529Z,50.80
2017-01-29T04:47:13.257Z,50.90
2017-01-29T04:48:12.369Z,50.70
2017-01-29T04:49:11.320Z,is
2017-01-29T04:50:11.803Z,50.70
2017-01-29T04:51:13.084Z,50.80
2017-01-29T04:52:12.074Z,50.70
2017-01-29T04:53:12.076Z,50.60
2017-01-29T04:54:12.054Z,50.70
2017-01-29T04:55:13.205Z,50.70
2017-01-29T04:56:11.653Z,50.70
2017-01-29T04:57:12.937Z,50.70
2017-01-29T04:58:12.244Z,50.70
2017-01-29T04:59:14.194Z,50.80
2017-01-29T05:00:12.832Z,50.70
2017-01-29T05:01:13.078Z,50.80
2017-01-29T05:02:12.214Z,50.80
2017-01-29T05:03:13.300Z,50.70
2017-01-29T05:04:12.069Z,50.70
2017-01-29T05:05:13.338Z,50.60
2017-01-29T05:06:12.478Z,50.70
2017-01-29T05:07:12.852Z,50.80
2017-01-29T05:08:13.875Z,50.70
2017-01-29T05:09:12.589Z,50.80
2017-01-29T05:10:12.990Z,50.70
2017-01-29T05:11:10.220Z,is
2017-01-29T05:12:12.412Z,50.70
2017-01-29T05:13:12.268Z,50.80
2017-01-29T05:14:12.416Z,50.60
2017-01-29T05:15:12.149Z,50.70
2017-01-29T05:16:12.781Z,50.70
2017-01-29T05:17:12.702Z,50.70
2017-01-29T05:18:11.868Z,50.70
2017-01-29T05:19:10.945Z,is
2017-01-29T05:20:12.771Z,50.70
2017-01-29T05:21:12.488Z,50.70
2017-01-29T05:22:12.201Z,50.70
2017-01-29T05:23:13.101Z,50.60
2017-01-29T05:24:10.739Z,is
2017-01-29T05:25:14.860Z,is
2017-01-29T05:26:15.866Z,50.70
2017-01-29T05:27:16.052Z,50.60
2017-01-29T05:28:12.236Z,50.60
2017-01-29T05:29:12.917Z,50.70
2017-01-29T05:30:12.778Z,50.70
2017-01-29T05:31:11.862Z,50.60
2017-01-29T05:32:11.892Z,50.60
2017-01-29T05:33:11.917Z,50.60
2017-01-29T05:34:12.047Z,50.50
2017-01-29T05:35:12.259Z,50.70
2017-01-29T05:36:12.770Z,50.50
2017-01-29T05:37:09.903Z,is
2017-01-29T05:38:11.156Z,is
2017-01-29T05:39:12.936Z,50.60
2017-01-29T05:40:11.980Z,50.60
2017-01-29T05:41:09.709Z,is
2017-01-29T05:42:12.192Z,50.50
2017-01-29T05:43:12.922Z,50.50
2017-01-29T05:44:10.424Z,is
2017-01-29T05:45:12.497Z,50.50
2017-01-29T05:46:11.636Z,50.60
2017-01-29T05:47:10.300Z,is
2017-01-29T05:48:14.613Z,50.50
2017-01-29T05:49:11.844Z,50.50
2017-01-29T05:50:11.971Z,50.40
2017-01-29T05:51:12.194Z,50.50
2017-01-29T05:52:12.307Z,50.70
2017-01-29T05:53:12.431Z,50.50
2017-01-29T05:54:11.995Z,50.50
2017-01-29T05:55:12.564Z,50.60
2017-01-29T05:56:12.126Z,50.50
2017-01-29T05:57:12.688Z,50.50
2017-01-29T05:58:13.211Z,50.40
2017-01-29T05:59:12.361Z,50.40
2017-01-29T06:00:11.471Z,50.50
2017-01-29T06:01:12.034Z,50.50
2017-01-29T06:02:12.044Z,50.50
2017-01-29T06:03:13.602Z,50.50
2017-01-29T06:04:10.217Z,is
2017-01-29T06:05:11.719Z,50.50
2017-01-29T06:06:12.300Z,50.50
2017-01-29T06:07:13.035Z,50.80
2017-01-29T06:08:12.532Z,50.50
2017-01-29T06:09:12.420Z,50.50
2017-01-29T06:10:12.673Z,50.60
2017-01-29T06:11:13.470Z,50.80
2017-01-29T06:12:16.139Z,50.50
2017-01-29T06:13:13.457Z,50.60
2017-01-29T06:14:13.137Z,50.60
2017-01-29T06:15:10.951Z,is
2017-01-29T06:16:12.656Z,50.50
2017-01-29T06:17:12.313Z,50.60
2017-01-29T06:18:11.895Z,50.50
2017-01-29T06:19:12.006Z,50.60
2017-01-29T06:20:11.984Z,50.60
2017-01-29T06:21:12.132Z,50.60
2017-01-29T06:22:12.195Z,50.60
2017-01-29T06:23:12.121Z,50.60
2017-01-29T06:24:12.131Z,50.60
2017-01-29T06:25:12.312Z,50.70
2017-01-29T06:26:13.984Z,50.60
2017-01-29T06:27:12.591Z,50.70
2017-01-29T06:28:11.515Z,50.70
2017-01-29T06:29:12.006Z,50.40
2017-01-29T06:30:12.792Z,50.70
2017-01-29T06:31:11.892Z,50.60
2017-01-29T06:32:13.693Z,50.60
2017-01-29T06:33:12.529Z,50.60
2017-01-29T06:34:11.547Z,50.60
2017-01-29T06:35:12.271Z,50.60
2017-01-29T06:36:12.307Z,50.50
2017-01-29T06:37:13.955Z,50.50
2017-01-29T06:38:12.085Z,50.40
2017-01-29T06:39:09.703Z,is
2017-01-29T06:40:11.962Z,50.40
2017-01-29T06:41:12.070Z,50.40
2017-01-29T06:42:12.737Z,50.50
2017-01-29T06:43:11.897Z,50.70
2017-01-29T06:44:12.320Z,50.70
2017-01-29T06:45:12.376Z,50.70
2017-01-29T06:46:11.507Z,50.60
2017-01-29T06:47:12.556Z,50.60
2017-01-29T06:48:12.537Z,50.60
2017-01-29T06:49:12.545Z,50.50
2017-01-29T06:50:12.160Z,50.50
2017-01-29T06:51:12.122Z,50.50
2017-01-29T06:52:12.905Z,50.70
2017-01-29T06:53:12.565Z,50.60
2017-01-29T06:54:12.015Z,50.50
2017-01-29T06:55:12.575Z,50.50
2017-01-29T06:56:11.714Z,50.50
2017-01-29T06:57:11.833Z,50.60
2017-01-29T06:58:13.291Z,50.60
2017-01-29T06:59:12.887Z,50.60
2017-01-29T07:00:13.612Z,50.60
2017-01-29T07:01:12.294Z,50.70
2017-01-29T07:02:12.241Z,50.60
2017-01-29T07:03:12.342Z,50.60
2017-01-29T07:04:12.418Z,50.60
2017-01-29T07:05:12.000Z,50.70
2017-01-29T07:06:10.853Z,is
2017-01-29T07:07:12.274Z,50.60
2017-01-29T07:08:12.781Z,50.60
2017-01-29T07:09:13.463Z,50.60
2017-01-29T07:10:13.130Z,50.80
2017-01-29T07:11:12.122Z,50.60
2017-01-29T07:12:10.710Z,is
2017-01-29T07:13:12.066Z,49.80
2017-01-29T07:14:13.591Z,50.70
2017-01-29T07:15:12.377Z,50.80
2017-01-29T07:16:13.983Z,50.70
2017-01-29T07:17:12.618Z,50.60
2017-01-29T07:18:13.200Z,50.70
2017-01-29T07:19:12.448Z,50.80
2017-01-29T07:20:11.519Z,50.80
2017-01-29T07:21:09.756Z,is
2017-01-29T07:22:12.759Z,50.90
2017-01-29T07:23:10.721Z,is
2017-01-29T07:24:12.033Z,50.80
2017-01-29T07:25:12.149Z,50.80
2017-01-29T07:26:12.791Z,50.80
2017-01-29T07:27:12.419Z,50.90
2017-01-29T07:28:11.681Z,50.80
2017-01-29T07:29:11.731Z,50.90
2017-01-29T07:30:12.493Z,51.00
2017-01-29T07:31:11.459Z,50.90
2017-01-29T07:32:10.428Z,is
2017-01-29T07:33:11.650Z,50.80
2017-01-29T07:34:12.141Z,50.80
2017-01-29T07:35:12.330Z,50.60
2017-01-29T07:36:12.581Z,50.70
2017-01-29T07:37:10.610Z,is
2017-01-29T07:38:12.639Z,50.50
2017-01-29T07:39:11.619Z,50.60
2017-01-29T07:40:10.724Z,is
2017-01-29T07:41:11.885Z,50.60
2017-01-29T07:42:12.575Z,50.80
2017-01-29T07:43:11.978Z,50.60
2017-01-29T07:44:10.816Z,is
2017-01-29T07:45:10.541Z,is
2017-01-29T07:46:13.467Z,50.60
2017-01-29T07:47:11.608Z,50.60
2017-01-29T07:48:11.804Z,50.70
2017-01-29T07:49:12.418Z,50.70
2017-01-29T07:50:11.545Z,50.70
2017-01-29T07:51:12.044Z,50.60
2017-01-29T07:52:12.139Z,50.60
2017-01-29T07:53:13.926Z,50.50
2017-01-29T07:54:11.922Z,50.50
2017-01-29T07:55:12.501Z,50.50
2017-01-29T07:56:12.260Z,50.50
2017-01-29T07:57:12.369Z,50.40
2017-01-29T07:58:11.523Z,50.40
2017-01-29T07:59:12.596Z,50.50
2017-01-29T08:00:11.635Z,50.50
2017-01-29T08:01:12.208Z,51.00
2017-01-29T08:02:12.795Z,50.90
2017-01-29T08:03:11.790Z,50.70
2017-01-29T08:04:12.460Z,50.80
2017-01-29T08:05:12.049Z,50.80
2017-01-29T08:06:12.224Z,50.70
2017-01-29T08:07:12.359Z,50.90
2017-01-29T08:08:12.506Z,50.80
2017-01-29T08:09:13.336Z,51.00
2017-01-29T08:10:14.271Z,51.10
2017-01-29T08:11:12.349Z,50.90
2017-01-29T08:12:12.375Z,50.50
2017-01-29T08:13:12.216Z,50.60
2017-01-29T08:14:12.338Z,50.60
2017-01-29T08:15:14.112Z,50.60
2017-01-29T08:16:12.188Z,50.60
2017-01-29T08:17:13.425Z,51.00
2017-01-29T08:18:12.227Z,50.60
2017-01-29T08:19:12.273Z,50.50
2017-01-29T08:20:12.340Z,50.60
2017-01-29T08:21:13.223Z,50.70
2017-01-29T08:22:10.299Z,is
2017-01-29T08:23:13.066Z,50.50
2017-01-29T08:24:12.750Z,50.70
2017-01-29T08:25:12.529Z,50.70
2017-01-29T08:26:12.222Z,50.80
2017-01-29T08:27:12.834Z,50.80
2017-01-29T08:28:11.910Z,50.80
2017-01-29T08:29:12.597Z,50.80
2017-01-29T08:30:12.299Z,50.70
2017-01-29T08:31:12.510Z,50.80
2017-01-29T08:32:11.605Z,50.90
2017-01-29T08:33:13.308Z,47.80
2017-01-29T08:34:10.894Z,is
2017-01-29T08:35:14.459Z,42.30
2017-01-29T08:36:12.112Z,43.50
2017-01-29T08:37:13.018Z,45.70
2017-01-29T08:38:11.928Z,47.30
2017-01-29T08:39:10.829Z,is
2017-01-29T08:40:12.626Z,47.80
2017-01-29T08:41:13.477Z,48.00
2017-01-29T08:42:12.187Z,47.80
2017-01-29T08:43:13.215Z,48.50
2017-01-29T08:44:11.182Z,is
2017-01-29T08:45:12.455Z,48.70
2017-01-29T08:46:13.023Z,47.70
2017-01-29T08:47:12.723Z,29.80
2017-01-29T08:48:11.666Z,28.00
2017-01-29T08:49:12.316Z,27.20
2017-01-29T08:50:12.669Z,29.00
2017-01-29T08:51:12.406Z,28.90
2017-01-29T08:52:12.115Z,33.00
2017-01-29T08:53:09.814Z,is
2017-01-29T08:54:12.766Z,38.10
2017-01-29T08:55:11.817Z,38.00
2017-01-29T08:56:11.970Z,37.60
2017-01-29T08:57:12.730Z,39.00
2017-01-29T08:58:11.950Z,40.80
2017-01-29T08:59:11.949Z,39.60
2017-01-29T09:00:11.986Z,41.50
2017-01-29T09:01:12.062Z,41.80
2017-01-29T09:02:12.679Z,42.20
2017-01-29T09:03:12.822Z,41.80
2017-01-29T09:04:11.863Z,41.70
2017-01-29T09:05:12.686Z,41.60
2017-01-29T09:06:11.725Z,41.50
2017-01-29T09:07:12.177Z,41.60
2017-01-29T09:08:12.846Z,41.50
2017-01-29T09:09:12.158Z,41.90
2017-01-29T09:10:12.158Z,42.10
2017-01-29T09:11:12.718Z,42.00
2017-01-29T09:12:12.221Z,42.20
2017-01-29T09:13:12.405Z,42.30
2017-01-29T09:14:11.486Z,42.50
2017-01-29T09:15:12.238Z,42.70
2017-01-29T09:16:12.323Z,43.40
2017-01-29T09:17:12.937Z,44.80
2017-01-29T09:18:12.976Z,43.80
2017-01-29T09:19:12.504Z,43.80
2017-01-29T09:20:11.759Z,43.80
2017-01-29T09:21:11.937Z,43.80
2017-01-29T09:22:12.014Z,44.00
2017-01-29T09:23:13.499Z,44.00
2017-01-29T09:24:12.602Z,44.10
2017-01-29T09:25:11.825Z,44.00
2017-01-29T09:26:13.340Z,44.10
2017-01-29T09:27:11.209Z,is
2017-01-29T09:28:10.546Z,is
2017-01-29T09:29:10.856Z,is
2017-01-29T09:30:13.829Z,45.00
2017-01-29T09:31:12.113Z,45.20
2017-01-29T09:32:12.186Z,45.20
2017-01-29T09:33:12.453Z,45.30
2017-01-29T09:34:12.394Z,45.60
2017-01-29T09:35:11.671Z,45.70
2017-01-29T09:36:12.059Z,45.90
2017-01-29T09:37:12.786Z,46.00
2017-01-29T09:38:12.555Z,45.90
2017-01-29T09:39:13.063Z,46.00
2017-01-29T09:40:13.428Z,46.10
2017-01-29T09:41:11.692Z,46.00
2017-01-29T09:42:13.529Z,46.30
2017-01-29T09:43:11.556Z,46.40
2017-01-29T09:44:12.515Z,46.40
2017-01-29T09:45:11.529Z,46.60
2017-01-29T09:46:11.726Z,46.40
2017-01-29T09:47:11.853Z,46.50
2017-01-29T09:48:12.942Z,46.60
2017-01-29T09:49:12.812Z,46.50
2017-01-29T09:50:12.489Z,46.50
2017-01-29T09:51:12.647Z,46.70
2017-01-29T09:52:11.648Z,46.80
2017-01-29T09:53:11.687Z,46.80
2017-01-29T09:54:13.259Z,46.90
2017-01-29T09:55:11.900Z,47.50
2017-01-29T09:56:12.538Z,47.30
2017-01-29T09:57:13.386Z,47.40
2017-01-29T09:58:12.516Z,47.10
2017-01-29T09:59:10.211Z,is
2017-01-29T10:00:11.739Z,41.10
2017-01-29T10:01:11.777Z,30.00
2017-01-29T10:02:12.695Z,28.30
2017-01-29T10:03:12.440Z,28.50
2017-01-29T10:04:12.009Z,29.00
2017-01-29T10:05:13.734Z,31.50
2017-01-29T10:06:12.417Z,33.50
2017-01-29T10:07:11.596Z,34.70
2017-01-29T10:08:12.246Z,36.00
2017-01-29T10:09:12.245Z,36.40
2017-01-29T10:10:12.408Z,36.70
2017-01-29T10:11:12.066Z,37.70
2017-01-29T10:12:13.260Z,37.20
2017-01-29T10:13:12.212Z,37.80
2017-01-29T10:14:11.000Z,is
2017-01-29T10:15:14.228Z,38.10
2017-01-29T10:16:13.826Z,38.40
2017-01-29T10:17:13.220Z,39.20
2017-01-29T10:18:12.678Z,39.20
2017-01-29T10:19:13.702Z,41.00
2017-01-29T10:20:12.001Z,41.10
2017-01-29T10:21:12.113Z,41.30
2017-01-29T10:22:12.230Z,41.60
2017-01-29T10:23:13.521Z,41.80
2017-01-29T10:24:10.355Z,is
2017-01-29T10:25:13.347Z,41.50
2017-01-29T10:26:12.343Z,41.50
2017-01-29T10:27:12.376Z,41.30
2017-01-29T10:28:12.387Z,41.30
2017-01-29T10:29:12.039Z,41.50
2017-01-29T10:30:13.813Z,41.20
2017-01-29T10:31:12.659Z,41.10
2017-01-29T10:32:11.752Z,41.00
2017-01-29T10:33:11.785Z,41.20
2017-01-29T10:34:12.405Z,41.60
2017-01-29T10:35:11.459Z,43.70
2017-01-29T10:36:11.479Z,42.90
2017-01-29T10:37:11.586Z,42.40
2017-01-29T10:38:11.911Z,41.90
2017-01-29T10:39:17.703Z,41.80
2017-01-29T10:40:12.517Z,42.00
2017-01-29T10:41:11.527Z,42.00
2017-01-29T10:42:12.192Z,42.10
2017-01-29T10:43:12.221Z,42.20
2017-01-29T10:44:12.914Z,42.00
2017-01-29T10:45:12.719Z,42.30
2017-01-29T10:46:11.724Z,43.30
2017-01-29T10:47:12.737Z,43.30
2017-01-29T10:48:11.807Z,43.10
2017-01-29T10:49:14.592Z,43.30
2017-01-29T10:50:11.847Z,43.20
2017-01-29T10:51:12.788Z,43.20
2017-01-29T10:52:12.344Z,43.40
2017-01-29T10:53:14.042Z,43.30
2017-01-29T10:54:12.730Z,43.40
2017-01-29T10:55:11.858Z,43.20
2017-01-29T10:56:11.970Z,43.20
2017-01-29T10:57:12.758Z,43.30
2017-01-29T10:58:12.478Z,43.40
2017-01-29T10:59:11.681Z,43.30
2017-01-29T11:00:09.629Z,is
2017-01-29T11:01:13.617Z,49.60
2017-01-29T11:02:13.350Z,46.90
2017-01-29T11:03:12.023Z,47.60
2017-01-29T11:04:15.650Z,61.00
2017-01-29T11:05:11.959Z,50.10
2017-01-29T11:06:13.310Z,49.90
2017-01-29T11:07:14.312Z,50.90
2017-01-29T11:08:14.084Z,45.90
2017-01-29T11:09:12.056Z,43.10
2017-01-29T11:10:12.713Z,43.60
2017-01-29T11:11:09.798Z,is
2017-01-29T11:12:10.839Z,is
2017-01-29T11:13:12.122Z,43.70
2017-01-29T11:14:13.820Z,44.40
2017-01-29T11:15:11.871Z,44.40
2017-01-29T11:16:12.027Z,43.40
2017-01-29T11:17:12.226Z,43.30
2017-01-29T11:18:12.295Z,43.60
2017-01-29T11:19:13.107Z,43.80
2017-01-29T11:20:10.581Z,is
2017-01-29T11:21:12.026Z,43.90
2017-01-29T11:22:12.146Z,44.00
2017-01-29T11:23:12.183Z,44.00
2017-01-29T11:24:12.812Z,44.10
2017-01-29T11:25:11.907Z,44.70
2017-01-29T11:26:12.591Z,45.00
2017-01-29T11:27:10.122Z,is
2017-01-29T11:28:12.870Z,45.30
2017-01-29T11:29:11.991Z,45.50
2017-01-29T11:30:12.881Z,45.40
2017-01-29T11:31:12.513Z,45.60
2017-01-29T11:32:12.562Z,45.60
2017-01-29T11:33:11.718Z,45.60
2017-01-29T11:34:12.550Z,45.90
2017-01-29T11:35:11.958Z,45.80
2017-01-29T11:36:12.029Z,46.00
2017-01-29T11:37:12.862Z,46.10
2017-01-29T11:38:09.091Z,is
2017-01-29T11:39:12.128Z,46.10
2017-01-29T11:40:13.647Z,46.10
2017-01-29T11:41:11.679Z,46.20
2017-01-29T11:42:11.841Z,46.40
2017-01-29T11:43:11.760Z,46.30
2017-01-29T11:44:09.090Z,is
2017-01-29T11:45:12.392Z,46.40
2017-01-29T11:46:09.743Z,is
2017-01-29T11:47:10.431Z,is
2017-01-29T11:48:09.532Z,is
2017-01-29T11:49:14.663Z,46.80
2017-01-29T11:50:11.820Z,46.60
2017-01-29T11:51:12.394Z,46.70
2017-01-29T11:52:13.091Z,46.80
2017-01-29T11:53:12.140Z,46.70
2017-01-29T11:54:12.068Z,46.90
2017-01-29T11:55:12.164Z,47.40
2017-01-29T11:56:12.210Z,47.10
2017-01-29T11:57:13.191Z,47.20
2017-01-29T11:58:12.756Z,47.00
2017-01-29T11:59:14.004Z,47.30
2017-01-29T12:00:12.531Z,47.10
2017-01-29T12:01:11.707Z,47.10
2017-01-29T12:02:13.500Z,47.10
2017-01-29T12:03:12.280Z,47.40
2017-01-29T12:04:13.505Z,47.40
2017-01-29T12:05:11.579Z,47.10
2017-01-29T12:06:11.608Z,47.30
2017-01-29T12:07:13.435Z,47.30
2017-01-29T12:08:11.526Z,47.10
2017-01-29T12:09:12.937Z,47.30
2017-01-29T12:10:12.432Z,47.30
2017-01-29T12:11:11.522Z,47.20
2017-01-29T12:12:11.694Z,47.40
2017-01-29T12:13:11.940Z,47.30
2017-01-29T12:14:11.813Z,47.40
2017-01-29T12:15:11.857Z,47.50
2017-01-29T12:16:12.398Z,47.70
2017-01-29T12:17:11.956Z,47.60
2017-01-29T12:18:13.676Z,47.80
2017-01-29T12:19:11.779Z,47.70
2017-01-29T12:20:12.466Z,47.70
2017-01-29T12:21:13.452Z,47.80
2017-01-29T12:22:11.376Z,47.80
2017-01-29T12:23:12.967Z,47.90
2017-01-29T12:24:11.640Z,47.80
2017-01-29T12:25:12.345Z,48.00
2017-01-29T12:26:13.257Z,48.00
2017-01-29T12:27:12.268Z,48.00
2017-01-29T12:28:13.125Z,48.00
2017-01-29T12:29:12.855Z,48.10
2017-01-29T12:30:14.082Z,48.00
2017-01-29T12:31:12.786Z,48.30
2017-01-29T12:32:11.824Z,48.10
2017-01-29T12:33:13.047Z,48.20
2017-01-29T12:34:12.776Z,48.30
2017-01-29T12:35:11.924Z,48.20
2017-01-29T12:36:12.675Z,48.30
2017-01-29T12:37:12.424Z,48.20
2017-01-29T12:38:11.934Z,48.30
2017-01-29T12:39:12.469Z,48.40
2017-01-29T12:40:11.666Z,48.20
2017-01-29T12:41:12.269Z,48.80
2017-01-29T12:42:12.549Z,49.00
2017-01-29T12:43:12.074Z,49.10
2017-01-29T12:44:12.689Z,49.10
2017-01-29T12:45:11.710Z,49.10
2017-01-29T12:46:12.384Z,49.10
2017-01-29T12:47:11.348Z,49.00
2017-01-29T12:48:14.056Z,49.00
2017-01-29T12:49:12.638Z,49.00
2017-01-29T12:50:11.995Z,49.00
2017-01-29T12:51:12.063Z,49.00
2017-01-29T12:52:12.985Z,49.10
2017-01-29T12:53:12.014Z,49.00
2017-01-29T12:54:12.682Z,49.00
2017-01-29T12:55:12.154Z,49.00
2017-01-29T12:56:12.397Z,48.10
2017-01-29T12:57:11.524Z,49.00
2017-01-29T12:58:12.398Z,49.00